Time;durP1;ratioP1;P1;durP2;ratioP2;P2;SDS_P1;SDS_P2;PMS_P1;PMS_P2;Temp;Humidity;BMP_temperature;BMP_pressure;BME280_temperature;BME280_humidity;BME280_pressure;Samples;Min_cycle;Max_cycle;Signal;HPM_P1;HPM_P2
2023/01/24 00:01:20;;;;;;;35.20;16.55;;;;;;;;;;5100500;28;20124;-82
2023/01/24 00:03:46;;;;;;;34.83;16.73;;;;;;;;;;5119438;28;20015;-83
2023/01/24 00:06:12;;;;;;;32.90;16.08;;;;;;;;;;5119026;28;20404;-82
2023/01/24 00:08:38;;;;;;;36.38;16.23;;;;;;;;;;5118442;28;20099;-82
2023/01/24 00:11:05;;;;;;;31.10;15.18;;;;;;;;;;5118610;28;20475;-84
2023/01/24 00:13:32;;;;;;;33.42;15.40;;;;;;;;;;5118421;28;20035;-82
2023/01/24 00:16:18;;;;;;;32.42;15.93;;;;;;;;;;5118450;28;20027;-82
2023/01/24 00:18:45;;;;;;;32.33;15.40;;;;;;;;;;5079937;28;20093;-83
2023/01/24 00:21:16;;;;;;;29.02;14.43;;;;;;;;;;5079201;28;20028;-82
2023/01/24 00:23:44;;;;;;;27.25;13.95;;;;;;;;;;5096585;28;20092;-84
2023/01/24 00:26:10;;;;;;;28.65;13.73;;;;;;;;;;5061272;28;20621;-84
2023/01/24 00:28:36;;;;;;;30.27;14.68;;;;;;;;;;5077591;28;20039;-84
2023/01/24 00:31:02;;;;;;;29.08;14.23;;;;;;;;;;5077686;28;20024;-84
2023/01/24 00:33:28;;;;;;;31.83;14.75;;;;;;;;;;5077334;28;20551;-82
2023/01/24 00:35:53;;;;;;;30.15;14.02;;;;;;;;;;5090744;28;20043;-82
2023/01/24 00:38:20;;;;;;;27.85;13.73;;;;;;;;;;5069537;28;20126;-82
2023/01/24 00:40:49;;;;;;;32.00;15.30;;;;;;;;;;5062347;28;20031;-83
2023/01/24 00:43:15;;;;;;;31.08;15.00;;;;;;;;;;5078613;28;20462;-81
2023/01/24 00:45:41;;;;;;;33.88;15.07;;;;;;;;;;5078718;28;20043;-82
2023/01/24 00:48:08;;;;;;;33.83;16.33;;;;;;;;;;5097447;28;20515;-84
2023/01/24 00:50:34;;;;;;;33.58;15.27;;;;;;;;;;5079003;28;20097;-84
2023/01/24 00:53:00;;;;;;;35.63;15.27;;;;;;;;;;5078577;28;20028;-83
2023/01/24 00:55:27;;;;;;;34.78;15.30;;;;;;;;;;5061660;28;20054;-84
2023/01/24 00:57:53;;;;;;;36.65;15.15;;;;;;;;;;5061812;28;20038;-83
2023/01/24 01:00:20;;;;;;;34.22;15.15;;;;;;;;;;5061552;28;20057;-83
2023/01/24 01:02:45;;;;;;;32.97;15.60;;;;;;;;;;5078345;28;20032;-84
2023/01/24 01:05:11;;;;;;;30.70;14.95;;;;;;;;;;5078140;28;20036;-82
2023/01/24 01:07:36;;;;;;;32.55;14.85;;;;;;;;;;5078478;28;20119;-82
2023/01/24 01:10:03;;;;;;;30.85;14.88;;;;;;;;;;5096504;28;20463;-82
2023/01/24 01:12:28;;;;;;;29.42;13.95;;;;;;;;;;5096560;28;20063;-83
2023/01/24 01:14:54;;;;;;;30.98;14.07;;;;;;;;;;5078467;28;20081;-83
2023/01/24 01:17:19;;;;;;;29.30;14.50;;;;;;;;;;5078669;28;20488;-85
2023/01/24 01:19:45;;;;;;;30.05;15.10;;;;;;;;;;5078547;28;20055;-83
2023/01/24 01:22:11;;;;;;;29.60;14.70;;;;;;;;;;5062439;28;20119;-82
2023/01/24 01:24:36;;;;;;;31.48;15.10;;;;;;;;;;5078105;28;20040;-82
2023/01/24 01:27:03;;;;;;;33.67;14.55;;;;;;;;;;5062109;28;20032;-84
2023/01/24 01:29:28;;;;;;;29.10;14.57;;;;;;;;;;5080432;28;20032;-82
2023/01/24 01:31:54;;;;;;;31.77;15.00;;;;;;;;;;5096927;28;20036;-83
2023/01/24 01:34:19;;;;;;;37.92;15.50;;;;;;;;;;5079220;28;20040;-83
2023/01/24 01:36:45;;;;;;;33.92;15.50;;;;;;;;;;5097831;28;20115;-83
2023/01/24 01:39:10;;;;;;;33.40;16.05;;;;;;;;;;5079498;28;20419;-83
2023/01/24 01:41:37;;;;;;;37.08;15.98;;;;;;;;;;5086718;28;20028;-83
2023/01/24 01:47:15;;;;;;;34.35;15.98;;;;;;;;;;5075160;28;20036;-82
2023/01/24 01:49:59;;;;;;;40.90;17.90;;;;;;;;;;5087701;28;20135;-82
2023/01/24 01:52:32;;;;;;;37.63;16.55;;;;;;;;;;5097010;28;20068;-83
2023/01/24 01:55:01;;;;;;;37.30;17.05;;;;;;;;;;5077774;28;20086;-83
2023/01/24 01:57:31;;;;;;;36.65;16.83;;;;;;;;;;5078499;28;20093;-83
2023/01/24 01:59:57;;;;;;;38.72;17.25;;;;;;;;;;5077591;28;20069;-82
2023/01/24 02:02:23;;;;;;;39.20;17.17;;;;;;;;;;5096187;28;20032;-84
2023/01/24 02:04:55;;;;;;;41.42;17.05;;;;;;;;;;5077444;28;20403;-84
2023/01/24 02:07:34;;;;;;;34.80;16.63;;;;;;;;;;5061080;28;20028;-84
2023/01/24 02:10:00;;;;;;;29.58;14.90;;;;;;;;;;5095963;28;20036;-83
2023/01/24 02:12:53;;;;;;;31.85;14.35;;;;;;;;;;5077223;28;20626;-82
2023/01/24 02:18:08;;;;;;;33.05;14.73;;;;;;;;;;5077277;28;20036;-84
2023/01/24 02:20:45;;;;;;;28.10;14.55;;;;;;;;;;5077161;28;20039;-84
2023/01/24 02:23:29;;;;;;;33.60;14.30;;;;;;;;;;5077524;28;20625;-85
2023/01/24 02:26:08;;;;;;;28.80;13.70;;;;;;;;;;5097127;28;20024;-84
2023/01/24 02:28:35;;;;;;;27.73;12.98;;;;;;;;;;5079267;28;20029;-83
2023/01/24 02:31:02;;;;;;;26.60;13.25;;;;;;;;;;5097128;28;20044;-83
2023/01/24 02:33:28;;;;;;;25.55;12.85;;;;;;;;;;5078401;28;20067;-84
2023/01/24 02:36:26;;;;;;;29.48;13.10;;;;;;;;;;5097202;28;20039;-83
2023/01/24 02:38:58;;;;;;;27.75;13.20;;;;;;;;;;5095282;28;20038;-83
2023/01/24 02:41:28;;;;;;;26.95;13.68;;;;;;;;;;5077229;28;20024;-83
2023/01/24 02:43:58;;;;;;;27.02;13.30;;;;;;;;;;5077225;28;20507;-84
2023/01/24 02:46:23;;;;;;;28.50;14.55;;;;;;;;;;5080759;28;20032;-82
2023/01/24 02:48:50;;;;;;;27.05;13.45;;;;;;;;;;5081328;28;20077;-83
2023/01/24 02:54:00;;;;;;;25.33;13.20;;;;;;;;;;5093218;28;20069;-82
2023/01/24 02:59:09;;;;;;;23.38;11.65;;;;;;;;;;5112349;28;20042;-84
2023/01/24 03:01:36;;;;;;;26.33;12.40;;;;;;;;;;5094822;28;20446;-82
2023/01/24 03:04:01;;;;;;;26.10;12.27;;;;;;;;;;5107142;28;20046;-84
2023/01/24 03:06:29;;;;;;;23.42;12.25;;;;;;;;;;5096374;28;20464;-83
2023/01/24 03:08:54;;;;;;;23.70;12.02;;;;;;;;;;5079415;28;20540;-82
2023/01/24 03:11:30;;;;;;;24.00;11.88;;;;;;;;;;5096338;28;20028;-85
2023/01/24 03:35:55;;;;;;;18.83;10.73;;;;;;;;;;5096741;28;20031;-83
2023/01/24 03:41:12;;;;;;;21.00;11.48;;;;;;;;;;5097114;28;20054;-83
2023/01/24 03:43:39;;;;;;;20.60;11.27;;;;;;;;;;5080285;28;20548;-83
2023/01/24 03:46:06;;;;;;;19.60;10.85;;;;;;;;;;5096782;28;20031;-83
2023/01/24 03:48:48;;;;;;;20.20;10.52;;;;;;;;;;5082503;28;20036;-83
2023/01/24 03:53:58;;;;;;;20.08;10.68;;;;;;;;;;5100792;28;20040;-83
2023/01/24 03:56:29;;;;;;;20.88;10.73;;;;;;;;;;5095767;28;20039;-82
2023/01/24 03:58:58;;;;;;;20.17;11.13;;;;;;;;;;5095045;28;20489;-85
2023/01/24 04:01:28;;;;;;;19.25;10.48;;;;;;;;;;5094911;28;20030;-84
2023/01/24 04:04:08;;;;;;;19.48;10.85;;;;;;;;;;5094788;28;20499;-84
2023/01/24 04:06:34;;;;;;;21.90;10.98;;;;;;;;;;5094817;28;20032;-83
2023/01/24 04:09:03;;;;;;;20.75;10.25;;;;;;;;;;5095359;28;20491;-83
2023/01/24 04:11:28;;;;;;;22.25;11.05;;;;;;;;;;5098618;28;20034;-82
2023/01/24 04:14:02;;;;;;;18.67;10.80;;;;;;;;;;5097636;28;20503;-82
2023/01/24 04:16:28;;;;;;;20.17;10.82;;;;;;;;;;5099613;28;20036;-82
2023/01/24 04:19:06;;;;;;;22.40;10.93;;;;;;;;;;5106563;28;20445;-82
2023/01/24 04:21:32;;;;;;;20.67;10.90;;;;;;;;;;5118162;28;20400;-82
2023/01/24 04:23:59;;;;;;;19.20;10.55;;;;;;;;;;5099359;28;20046;-83
2023/01/24 04:26:25;;;;;;;18.42;10.05;;;;;;;;;;5099912;28;20053;-82
2023/01/24 04:28:53;;;;;;;20.58;10.48;;;;;;;;;;5099441;28;20035;-83
2023/01/24 04:31:19;;;;;;;21.40;10.63;;;;;;;;;;5099912;28;20036;-83
2023/01/24 04:33:56;;;;;;;19.65;10.15;;;;;;;;;;5117858;28;20100;-82
2023/01/24 04:36:25;;;;;;;19.67;10.98;;;;;;;;;;5082933;28;20510;-83
2023/01/24 04:38:51;;;;;;;20.13;10.52;;;;;;;;;;5114468;22;20048;-80
2023/01/24 04:41:22;;;;;;;19.52;10.93;;;;;;;;;;5101410;28;20111;-80
2023/01/24 04:43:48;;;;;;;22.63;10.57;;;;;;;;;;5101228;28;20057;-81
2023/01/24 04:46:14;;;;;;;19.83;11.05;;;;;;;;;;5115982;28;20024;-81
2023/01/24 04:48:54;;;;;;;21.27;11.35;;;;;;;;;;5099388;28;20031;-81
2023/01/24 04:51:24;;;;;;;24.02;11.80;;;;;;;;;;5099582;28;20032;-81
2023/01/24 04:53:51;;;;;;;23.70;12.23;;;;;;;;;;5100960;28;20047;-80
2023/01/24 04:56:20;;;;;;;28.20;12.75;;;;;;;;;;5098871;28;20047;-81
2023/01/24 04:58:45;;;;;;;21.52;11.05;;;;;;;;;;5100535;28;20043;-82
2023/01/24 05:01:12;;;;;;;23.17;11.10;;;;;;;;;;5100372;28;20031;-81
2023/01/24 05:03:49;;;;;;;20.55;10.95;;;;;;;;;;5085087;28;20035;-80
2023/01/24 05:06:14;;;;;;;22.52;10.88;;;;;;;;;;5118860;28;20131;-82
2023/01/24 05:08:40;;;;;;;19.77;10.43;;;;;;;;;;5100108;28;20047;-81
2023/01/24 05:11:06;;;;;;;20.50;10.95;;;;;;;;;;5100424;28;20119;-81
2023/01/24 05:13:40;;;;;;;19.23;10.65;;;;;;;;;;5099770;28;20364;-81
2023/01/24 05:16:06;;;;;;;18.58;10.60;;;;;;;;;;5116729;28;20604;-80
2023/01/24 05:18:32;;;;;;;17.30;9.63;;;;;;;;;;5100133;28;20067;-81
2023/01/24 05:21:04;;;;;;;21.88;11.25;;;;;;;;;;5099956;28;20050;-81
2023/01/24 05:23:30;;;;;;;34.22;16.95;;;;;;;;;;5100430;28;20042;-81
2023/01/24 05:26:00;;;;;;;25.40;13.45;;;;;;;;;;5118711;28;20031;-81
2023/01/24 05:28:28;;;;;;;23.48;12.60;;;;;;;;;;5085362;28;20081;-81
2023/01/24 05:30:59;;;;;;;21.33;10.57;;;;;;;;;;5099669;28;20403;-82
2023/01/24 05:33:28;;;;;;;20.52;10.05;;;;;;;;;;5099205;28;20088;-81
2023/01/24 05:35:59;;;;;;;18.63;10.23;;;;;;;;;;5098899;28;20126;-81
2023/01/24 05:38:25;;;;;;;19.33;10.10;;;;;;;;;;5099445;28;20042;-80
2023/01/24 05:40:52;;;;;;;22.75;10.63;;;;;;;;;;5098921;28;20061;-81
2023/01/24 05:43:18;;;;;;;21.33;10.20;;;;;;;;;;5099245;28;20035;-81
2023/01/24 05:45:44;;;;;;;18.67;9.85;;;;;;;;;;5098969;28;20035;-81
2023/01/24 05:48:10;;;;;;;23.52;11.30;;;;;;;;;;5098951;28;20513;-82
2023/01/24 05:50:36;;;;;;;23.95;11.57;;;;;;;;;;5099547;28;20403;-82
2023/01/24 05:53:09;;;;;;;;;;;;;;;;;;5117776;28;20024;-79
2023/01/24 05:55:34;;;;;;;22.20;11.00;;;;;;;;;;5098228;28;19937;-81
2023/01/24 05:58:00;;;;;;;19.83;10.88;;;;;;;;;;5099296;28;20054;-82
2023/01/24 06:00:32;;;;;;;21.67;10.20;;;;;;;;;;5098891;28;20031;-81
2023/01/24 06:03:17;;;;;;;19.45;9.98;;;;;;;;;;5117000;28;20073;-82
2023/01/24 06:05:52;;;;;;;21.23;10.77;;;;;;;;;;5098709;28;20031;-82
2023/01/24 06:08:18;;;;;;;22.52;10.57;;;;;;;;;;5082836;28;20024;-80
2023/01/24 06:10:44;;;;;;;20.20;10.32;;;;;;;;;;5098905;28;20035;-81
2023/01/24 06:13:12;;;;;;;18.80;10.30;;;;;;;;;;5098406;28;20049;-82
2023/01/24 06:15:38;;;;;;;19.27;10.35;;;;;;;;;;5116895;28;20042;-81
2023/01/24 06:18:12;;;;;;;20.25;10.30;;;;;;;;;;5098939;28;20035;-82
2023/01/24 06:20:38;;;;;;;17.67;10.30;;;;;;;;;;5099180;28;20019;-82
2023/01/24 06:23:06;;;;;;;21.70;11.20;;;;;;;;;;5081775;28;20084;-81
2023/01/24 06:25:37;;;;;;;;;;;;;;;;;;5116105;28;20031;-78
2023/01/24 06:28:03;;;;;;;21.83;12.13;;;;;;;;;;5116712;28;20286;-81
2023/01/24 06:30:28;;;;;;;19.08;10.45;;;;;;;;;;5116679;28;20044;-81
2023/01/24 06:33:19;;;;;;;21.98;11.07;;;;;;;;;;5116042;28;20449;-81
2023/01/24 06:36:23;;;;;;;19.15;10.80;;;;;;;;;;5097853;28;20395;-81
2023/01/24 06:38:49;;;;;;;21.20;10.38;;;;;;;;;;5101015;28;20095;-82
2023/01/24 06:41:16;;;;;;;16.67;9.45;;;;;;;;;;5115576;28;20478;-81
2023/01/24 06:43:43;;;;;;;21.67;10.70;;;;;;;;;;5098327;28;20043;-81
2023/01/24 06:46:09;;;;;;;21.45;10.25;;;;;;;;;;5116291;28;20681;-80
2023/01/24 06:48:35;;;;;;;20.23;10.50;;;;;;;;;;5097557;28;20055;-82
2023/01/24 06:51:00;;;;;;;19.95;10.77;;;;;;;;;;5098534;28;20046;-81
2023/01/24 06:53:26;;;;;;;25.02;10.38;;;;;;;;;;5116891;28;20059;-80
2023/01/24 06:55:51;;;;;;;22.23;11.20;;;;;;;;;;5115242;28;20034;-81
2023/01/24 06:58:17;;;;;;;20.23;11.35;;;;;;;;;;5097922;28;20081;-80
2023/01/24 07:00:42;;;;;;;19.63;10.73;;;;;;;;;;5116310;28;20031;-80
2023/01/24 07:03:08;;;;;;;20.05;11.55;;;;;;;;;;5116717;28;20058;-80
2023/01/24 07:05:38;;;;;;;21.52;11.18;;;;;;;;;;5116902;28;20152;-80
2023/01/24 07:08:05;;;;;;;20.27;11.05;;;;;;;;;;5116902;28;20084;-81
2023/01/24 07:10:31;;;;;;;21.20;11.10;;;;;;;;;;5097930;28;20043;-80
2023/01/24 07:12:56;;;;;;;22.80;11.15;;;;;;;;;;5098293;28;20032;-81
2023/01/24 07:15:22;;;;;;;21.05;11.77;;;;;;;;;;5098640;28;20038;-81
2023/01/24 07:17:48;;;;;;;27.63;12.48;;;;;;;;;;5098112;28;20039;-81
2023/01/24 07:20:14;;;;;;;24.00;12.15;;;;;;;;;;5099065;28;20023;-81
2023/01/24 07:22:41;;;;;;;22.55;11.82;;;;;;;;;;5116553;28;20031;-81
2023/01/24 07:25:15;;;;;;;21.83;11.27;;;;;;;;;;5097609;28;20023;-81
2023/01/24 07:27:44;;;;;;;21.23;10.95;;;;;;;;;;5116036;28;20645;-81
2023/01/24 07:30:11;;;;;;;22.00;11.27;;;;;;;;;;5097633;28;20486;-85
2023/01/24 07:32:37;;;;;;;21.65;11.18;;;;;;;;;;5115354;28;20039;-85
2023/01/24 07:35:03;;;;;;;19.23;10.40;;;;;;;;;;5116369;28;20023;-82
2023/01/24 07:37:29;;;;;;;18.23;10.10;;;;;;;;;;5097167;28;20131;-83
2023/01/24 07:39:55;;;;;;;20.60;10.38;;;;;;;;;;5097718;28;20067;-83
2023/01/24 07:42:20;;;;;;;20.20;11.07;;;;;;;;;;5097828;28;20028;-83
2023/01/24 07:44:46;;;;;;;22.83;11.15;;;;;;;;;;5117615;28;20061;-82
2023/01/24 07:47:12;;;;;;;19.33;11.25;;;;;;;;;;5120456;28;20036;-83
2023/01/24 07:49:37;;;;;;;19.45;9.73;;;;;;;;;;5120923;28;20062;-82
2023/01/24 07:52:03;;;;;;;18.27;9.40;;;;;;;;;;5120380;28;20483;-83
2023/01/24 07:54:28;;;;;;;18.13;10.98;;;;;;;;;;5119308;28;20407;-83
2023/01/24 07:56:53;;;;;;;20.13;10.90;;;;;;;;;;5084084;28;20039;-82
2023/01/24 07:59:19;;;;;;;19.55;9.88;;;;;;;;;;5119146;28;20039;-81
2023/01/24 08:01:44;;;;;;;19.45;10.80;;;;;;;;;;5120244;28;20039;-82
2023/01/24 08:04:10;;;;;;;23.20;12.73;;;;;;;;;;5119312;28;20143;-81
2023/01/24 08:06:35;;;;;;;22.58;11.38;;;;;;;;;;5119706;28;20039;-82
2023/01/24 08:09:01;;;;;;;19.05;10.80;;;;;;;;;;5119233;28;20132;-83
2023/01/24 08:11:26;;;;;;;19.48;11.18;;;;;;;;;;5100113;28;20024;-83
2023/01/24 08:13:52;;;;;;;18.25;10.55;;;;;;;;;;5086663;28;20497;-82
2023/01/24 08:16:18;;;;;;;19.98;10.07;;;;;;;;;;5079458;28;20032;-81
2023/01/24 08:18:46;;;;;;;17.00;9.70;;;;;;;;;;5097615;28;20072;-82
2023/01/24 08:21:11;;;;;;;18.08;9.93;;;;;;;;;;5079317;28;20028;-81
2023/01/24 08:23:37;;;;;;;18.77;10.13;;;;;;;;;;5098547;28;20062;-82
2023/01/24 08:26:06;;;;;;;17.90;9.90;;;;;;;;;;5097741;28;20061;-81
2023/01/24 08:28:32;;;;;;;17.40;9.85;;;;;;;;;;5097453;28;20365;-81
2023/01/24 08:30:58;;;;;;;19.23;9.50;;;;;;;;;;5097396;28;20032;-81
2023/01/24 08:33:24;;;;;;;19.10;9.73;;;;;;;;;;5097985;28;20088;-81
2023/01/24 08:35:49;;;;;;;17.30;9.68;;;;;;;;;;5097465;28;20578;-81
2023/01/24 08:38:15;;;;;;;16.33;9.07;;;;;;;;;;5097645;28;20031;-81
2023/01/24 08:40:42;;;;;;;16.80;9.50;;;;;;;;;;5097915;28;20092;-82
2023/01/24 08:43:08;;;;;;;17.52;9.55;;;;;;;;;;5062061;28;20032;-81
2023/01/24 08:45:33;;;;;;;21.45;10.63;;;;;;;;;;5062405;28;20036;-81
2023/01/24 08:47:59;;;;;;;19.13;10.13;;;;;;;;;;5096963;28;20127;-81
2023/01/24 08:50:25;;;;;;;18.50;10.25;;;;;;;;;;5097282;28;20119;-81
2023/01/24 08:52:54;;;;;;;18.27;9.50;;;;;;;;;;5097083;28;20031;-82
2023/01/24 08:55:19;;;;;;;17.83;9.27;;;;;;;;;;5095610;28;20067;-82
2023/01/24 08:57:44;;;;;;;19.40;10.35;;;;;;;;;;5096359;28;20110;-81
2023/01/24 09:00:11;;;;;;;19.98;10.43;;;;;;;;;;5078342;28;20036;-82
2023/01/24 09:02:37;;;;;;;18.65;10.30;;;;;;;;;;5096679;28;20031;-82
2023/01/24 09:05:07;;;;;;;17.13;9.77;;;;;;;;;;5096041;28;20039;-83
2023/01/24 09:07:36;;;;;;;17.67;9.75;;;;;;;;;;5077965;28;20058;-82
2023/01/24 09:10:03;;;;;;;20.10;10.05;;;;;;;;;;5096553;28;20062;-83
2023/01/24 09:12:31;;;;;;;17.88;10.23;;;;;;;;;;5096166;28;20488;-83
2023/01/24 09:14:57;;;;;;;18.13;10.43;;;;;;;;;;5078154;28;20039;-82
2023/01/24 09:17:22;;;;;;;18.35;9.85;;;;;;;;;;5084833;28;20031;-81
2023/01/24 09:19:51;;;;;;;18.90;10.25;;;;;;;;;;5116295;28;20032;-84
2023/01/24 09:22:16;;;;;;;16.38;9.27;;;;;;;;;;5117055;28;20026;-82
2023/01/24 09:24:42;;;;;;;17.63;9.93;;;;;;;;;;5097558;28;20031;-83
2023/01/24 09:27:10;;;;;;;17.75;9.85;;;;;;;;;;5097899;28;20216;-82
2023/01/24 09:29:35;;;;;;;19.50;9.82;;;;;;;;;;5097864;28;20024;-81
2023/01/24 09:32:01;;;;;;;18.50;9.82;;;;;;;;;;5116507;28;20043;-82
2023/01/24 09:34:26;;;;;;;18.08;9.80;;;;;;;;;;5098136;28;20111;-82
2023/01/24 09:36:52;;;;;;;18.35;9.80;;;;;;;;;;5116165;28;20036;-82
2023/01/24 09:39:17;;;;;;;19.92;10.55;;;;;;;;;;5116308;28;20027;-83
2023/01/24 09:41:52;;;;;;;23.83;12.18;;;;;;;;;;5101193;28;20517;-83
2023/01/24 09:44:36;;;;;;;18.80;9.73;;;;;;;;;;5095619;28;20124;-82
2023/01/24 09:47:14;;;;;;;19.48;10.35;;;;;;;;;;5077534;28;20038;-82
2023/01/24 09:49:47;;;;;;;20.70;10.23;;;;;;;;;;5095837;28;20117;-83
2023/01/24 09:52:25;;;;;;;17.70;9.52;;;;;;;;;;5077413;28;20028;-83
2023/01/24 09:55:00;;;;;;;16.60;9.38;;;;;;;;;;5095823;28;20040;-82
2023/01/24 09:57:42;;;;;;;19.25;9.98;;;;;;;;;;5095746;28;20043;-83
2023/01/24 10:00:20;;;;;;;19.25;10.57;;;;;;;;;;5077365;28;20047;-84
2023/01/24 10:02:46;;;;;;;20.63;11.07;;;;;;;;;;5077987;28;20091;-83
2023/01/24 10:05:16;;;;;;;24.17;11.93;;;;;;;;;;5076748;28;20509;-83
2023/01/24 10:07:42;;;;;;;24.33;11.27;;;;;;;;;;5094690;28;20032;-84
2023/01/24 10:10:10;;;;;;;23.98;12.10;;;;;;;;;;5077070;28;20032;-83
2023/01/24 10:13:13;;;;;;;17.67;10.02;;;;;;;;;;5095600;28;20032;-84
2023/01/24 10:16:11;;;;;;;17.55;10.13;;;;;;;;;;5077437;28;20028;-83
2023/01/24 10:18:45;;;;;;;18.23;10.05;;;;;;;;;;5095272;28;20123;-83
2023/01/24 10:21:56;;;;;;;17.90;10.20;;;;;;;;;;5076457;28;20039;-83
2023/01/24 10:24:27;;;;;;;17.63;9.80;;;;;;;;;;5095502;28;20545;-83
2023/01/24 10:26:53;;;;;;;18.27;9.98;;;;;;;;;;5076765;28;20040;-83
2023/01/24 10:29:29;;;;;;;18.77;9.98;;;;;;;;;;5076591;28;20043;-82
2023/01/24 10:32:03;;;;;;;19.00;10.43;;;;;;;;;;5094737;28;20407;-83
2023/01/24 10:34:43;;;;;;;17.40;9.43;;;;;;;;;;5076657;28;20036;-82
2023/01/24 10:37:08;;;;;;;16.35;9.85;;;;;;;;;;5095374;28;20040;-83
2023/01/24 10:39:34;;;;;;;19.52;10.38;;;;;;;;;;5130998;22;20040;-85
2023/01/24 10:41:59;;;;;;;17.15;9.68;;;;;;;;;;5115951;28;20084;-84
2023/01/24 10:44:35;;;;;;;18.08;10.10;;;;;;;;;;5097737;28;20445;-82
2023/01/24 10:47:24;;;;;;;18.17;10.15;;;;;;;;;;5115803;28;20074;-85
2023/01/24 10:50:01;;;;;;;20.67;10.63;;;;;;;;;;5116125;28;20281;-85
2023/01/24 10:52:27;;;;;;;19.15;10.88;;;;;;;;;;5115956;28;20499;-83
2023/01/24 10:54:57;;;;;;;20.33;10.68;;;;;;;;;;5097358;28;20039;-85
2023/01/24 10:57:37;;;;;;;18.90;10.55;;;;;;;;;;5087860;28;20040;-83
2023/01/24 11:00:22;;;;;;;20.85;10.55;;;;;;;;;;5077742;28;20129;-85
2023/01/24 11:02:54;;;;;;;19.90;11.35;;;;;;;;;;5095012;28;20036;-85
2023/01/24 11:05:20;;;;;;;20.17;11.10;;;;;;;;;;5095225;28;20058;-83
2023/01/24 11:07:58;;;;;;;18.45;10.60;;;;;;;;;;5076217;28;20495;-85
2023/01/24 11:10:26;;;;;;;20.33;10.88;;;;;;;;;;5094662;28;20699;-85
2023/01/24 11:12:51;;;;;;;21.95;11.75;;;;;;;;;;5095437;28;20177;-84
2023/01/24 11:15:22;;;;;;;20.85;11.52;;;;;;;;;;5094673;28;20077;-84
2023/01/24 11:17:53;;;;;;;19.08;10.80;;;;;;;;;;5077953;28;20040;-83
2023/01/24 11:20:44;;;;;;;20.73;10.98;;;;;;;;;;5102017;28;20032;-85
2023/01/24 11:23:15;;;;;;;21.95;11.80;;;;;;;;;;5077598;28;20047;-86
2023/01/24 11:25:56;;;;;;;20.70;11.35;;;;;;;;;;5097915;28;20085;-85
2023/01/24 11:28:25;;;;;;;21.40;11.45;;;;;;;;;;5071844;28;20044;-84
2023/01/24 11:30:52;;;;;;;24.33;12.07;;;;;;;;;;5097870;28;20050;-84
2023/01/24 11:33:45;;;;;;;22.65;12.18;;;;;;;;;;5117074;28;20027;-85
2023/01/24 11:36:19;;;;;;;24.88;12.80;;;;;;;;;;5113925;28;20040;-83
2023/01/24 11:38:45;;;;;;;21.10;11.93;;;;;;;;;;5094601;28;20065;-83
2023/01/24 11:41:36;;;;;;;25.42;14.20;;;;;;;;;;5126005;28;20031;-83
2023/01/24 11:44:37;;;;;;;27.05;13.82;;;;;;;;;;5081124;28;20067;-83
2023/01/24 11:47:21;;;;;;;37.75;22.02;;;;;;;;;;5083562;28;20107;-85
2023/01/24 11:50:04;;;;;;;28.52;14.15;;;;;;;;;;5098525;28;20561;-87
2023/01/24 11:53:01;;;;;;;39.20;22.95;;;;;;;;;;5115715;28;20054;-85
2023/01/24 11:55:45;;;;;;;27.15;14.38;;;;;;;;;;5116964;28;20510;-86
2023/01/24 11:58:25;;;;;;;28.80;15.68;;;;;;;;;;5116785;28;20470;-86
2023/01/24 12:01:06;;;;;;;30.60;14.85;;;;;;;;;;5098348;28;20036;-84
2023/01/24 12:03:46;;;;;;;28.70;14.35;;;;;;;;;;5098156;28;20436;-85
2023/01/24 12:06:21;;;;;;;35.13;15.48;;;;;;;;;;5097646;28;20034;-83
2023/01/24 12:08:56;;;;;;;26.95;12.52;;;;;;;;;;5115697;28;20039;-86
2023/01/24 12:11:24;;;;;;;31.38;15.30;;;;;;;;;;5116104;28;20399;-86
2023/01/24 12:14:11;;;;;;;27.90;14.07;;;;;;;;;;5115965;28;20028;-85
2023/01/24 12:16:57;;;;;;;40.60;16.25;;;;;;;;;;5096294;28;20042;-85
2023/01/24 12:19:51;;;;;;;30.70;14.90;;;;;;;;;;5096091;28;20031;-87
2023/01/24 12:22:21;;;;;;;24.23;12.50;;;;;;;;;;5096670;28;20088;-86
2023/01/24 12:25:13;;;;;;;25.83;12.57;;;;;;;;;;5096298;28;20503;-84
2023/01/24 12:27:40;;;;;;;25.30;13.40;;;;;;;;;;5113925;28;20468;-85
2023/01/24 12:30:18;;;;;;;25.38;13.02;;;;;;;;;;5096350;28;20051;-84
2023/01/24 12:32:53;;;;;;;24.98;13.65;;;;;;;;;;5107564;28;20081;-85
2023/01/24 12:35:26;;;;;;;26.88;13.45;;;;;;;;;;5117963;28;20035;-85
2023/01/24 12:37:57;;;;;;;25.65;14.18;;;;;;;;;;5099969;28;20035;-87
2023/01/24 12:40:40;;;;;;;27.88;14.63;;;;;;;;;;5099218;28;20051;-85
2023/01/24 12:43:36;;;;;;;26.67;13.73;;;;;;;;;;5117078;28;20040;-85
2023/01/24 12:46:13;;;;;;;31.90;13.75;;;;;;;;;;5098031;28;20314;-85
2023/01/24 12:48:50;;;;;;;30.75;15.95;;;;;;;;;;5116170;28;20032;-84
2023/01/24 12:51:55;;;;;;;29.55;15.65;;;;;;;;;;5097516;28;20032;-84
2023/01/24 12:54:25;;;;;;;25.27;13.98;;;;;;;;;;5094509;28;20074;-87
2023/01/24 12:57:04;;;;;;;29.35;14.50;;;;;;;;;;5099300;28;20182;-84
2023/01/24 12:59:33;;;;;;;28.40;14.93;;;;;;;;;;5099276;28;20031;-84
2023/01/24 13:02:10;;;;;;;37.92;18.27;;;;;;;;;;5082174;28;20395;-85
2023/01/24 13:05:04;;;;;;;39.33;17.77;;;;;;;;;;5098938;28;20031;-84
2023/01/24 13:07:41;;;;;;;34.35;17.38;;;;;;;;;;5117669;28;20031;-84
2023/01/24 13:10:12;;;;;;;34.60;16.65;;;;;;;;;;5099106;28;20062;-84
2023/01/24 13:12:42;;;;;;;27.92;15.20;;;;;;;;;;5117672;28;20028;-85
2023/01/24 13:15:18;;;;;;;28.52;15.13;;;;;;;;;;5098042;28;20031;-85
2023/01/24 13:17:47;;;;;;;29.25;15.13;;;;;;;;;;5117604;28;20099;-84
2023/01/24 13:20:15;;;;;;;29.67;15.55;;;;;;;;;;5097867;28;20023;-84
2023/01/24 13:22:54;;;;;;;31.02;16.70;;;;;;;;;;5116917;28;20043;-86
2023/01/24 13:25:29;;;;;;;26.63;14.63;;;;;;;;;;5098407;28;20384;-85
2023/01/24 13:28:13;;;;;;;30.35;14.82;;;;;;;;;;5098318;28;20040;-84
2023/01/24 13:30:50;;;;;;;29.77;15.77;;;;;;;;;;5116175;28;20078;-85
2023/01/24 13:33:23;;;;;;;26.85;14.25;;;;;;;;;;5097949;28;20043;-85
2023/01/24 13:35:51;;;;;;;26.95;15.20;;;;;;;;;;5124947;28;20028;-85
2023/01/24 13:38:26;;;;;;;26.75;14.40;;;;;;;;;;5116420;28;20035;-85
2023/01/24 13:41:05;;;;;;;25.42;14.02;;;;;;;;;;5097603;28;20047;-86
2023/01/24 13:43:57;;;;;;;27.90;16.00;;;;;;;;;;5080815;28;20051;-86
2023/01/24 13:46:41;;;;;;;25.45;13.90;;;;;;;;;;5115438;28;20039;-86
2023/01/24 13:49:28;;;;;;;28.42;14.43;;;;;;;;;;5115321;28;20036;-86
2023/01/24 13:51:54;;;;;;;31.90;16.35;;;;;;;;;;5115540;28;20376;-85
2023/01/24 13:54:43;;;;;;;29.23;15.57;;;;;;;;;;5114533;28;20597;-85
2023/01/24 13:57:08;;;;;;;30.80;15.48;;;;;;;;;;5097188;28;20096;-85
2023/01/24 13:59:37;;;;;;;26.38;14.70;;;;;;;;;;5114576;28;20035;-85
2023/01/24 14:02:22;;;;;;;26.20;14.00;;;;;;;;;;5096760;28;20031;-85
2023/01/24 14:04:48;;;;;;;34.78;15.38;;;;;;;;;;5121199;28;20031;-83
2023/01/24 14:07:35;;;;;;;25.75;15.05;;;;;;;;;;5120473;28;20035;-86
2023/01/24 14:10:03;;;;;;;34.83;17.50;;;;;;;;;;5097476;28;20054;-87
2023/01/24 14:12:31;;;;;;;28.17;15.02;;;;;;;;;;5115408;28;20039;-86
2023/01/24 14:15:10;;;;;;;33.13;15.73;;;;;;;;;;5115054;28;20027;-85
2023/01/24 14:17:36;;;;;;;31.08;15.85;;;;;;;;;;5115489;28;20507;-86
2023/01/24 14:20:03;;;;;;;28.50;14.73;;;;;;;;;;5096745;28;20035;-85
2023/01/24 14:22:36;;;;;;;27.77;14.23;;;;;;;;;;5079976;28;20031;-86
2023/01/24 14:25:16;;;;;;;27.83;14.73;;;;;;;;;;5114592;28;20036;-85
2023/01/24 14:27:50;;;;;;;25.25;13.73;;;;;;;;;;5096842;28;20063;-87
2023/01/24 14:30:31;;;;;;;29.15;15.30;;;;;;;;;;5114820;28;20365;-87
2023/01/24 14:33:28;;;;;;;27.38;14.45;;;;;;;;;;5096028;28;20032;-86
2023/01/24 14:36:21;;;;;;;28.90;15.52;;;;;;;;;;5087610;28;20059;-87
2023/01/24 14:38:46;;;;;;;27.90;13.87;;;;;;;;;;5095901;28;20376;-83
2023/01/24 14:41:21;;;;;;;27.92;13.30;;;;;;;;;;5105416;28;20653;-85
2023/01/24 14:43:47;;;;;;;23.27;12.85;;;;;;;;;;5095752;28;20403;-87
2023/01/24 14:46:20;;;;;;;24.25;13.40;;;;;;;;;;5114342;28;20054;-87
2023/01/24 14:48:46;;;;;;;25.38;12.95;;;;;;;;;;5118247;28;20028;-85
2023/01/24 14:51:15;;;;;;;24.08;13.10;;;;;;;;;;5117941;28;20518;-87
2023/01/24 14:53:46;;;;;;;23.67;12.38;;;;;;;;;;5117245;28;20040;-86
2023/01/24 14:56:13;;;;;;;24.35;13.38;;;;;;;;;;5117609;28;20043;-85
2023/01/24 14:58:38;;;;;;;24.92;13.90;;;;;;;;;;5098268;28;20565;-86
2023/01/24 15:01:30;;;;;;;22.75;13.25;;;;;;;;;;5098693;28;20027;-86
2023/01/24 15:03:57;;;;;;;20.90;12.13;;;;;;;;;;5080438;28;20068;-85
2023/01/24 15:06:24;;;;;;;25.83;13.15;;;;;;;;;;5097485;28;20127;-85
2023/01/24 15:08:54;;;;;;;17.08;9.57;;;;;;;;;;5090083;28;20071;-84
2023/01/24 15:11:24;;;;;;;22.33;12.20;;;;;;;;;;5075740;28;20071;-84
2023/01/24 15:13:54;;;;;;;23.63;12.43;;;;;;;;;;5075626;28;20047;-82
2023/01/24 15:16:30;;;;;;;25.17;12.63;;;;;;;;;;5092786;28;20500;-83
2023/01/24 15:19:12;;;;;;;26.40;14.27;;;;;;;;;;5105157;28;20032;-83
2023/01/24 15:21:39;;;;;;;27.27;14.10;;;;;;;;;;5077351;28;20084;-84